createdAt,value
2023-02-03T00:01:46.824Z,100.00
2023-02-03T00:04:13.481Z,100.00
2023-02-03T00:06:40.565Z,100.00
2023-02-03T00:09:07.242Z,100.00
2023-02-03T00:11:33.825Z,100.00
2023-02-03T00:14:00.316Z,100.00
2023-02-03T00:16:26.985Z,100.00
2023-02-03T00:18:53.594Z,100.00
2023-02-03T00:21:20.174Z,100.00
2023-02-03T00:23:46.718Z,100.00
2023-02-03T00:26:15.855Z,100.00
2023-02-03T00:28:42.953Z,100.00
2023-02-03T00:31:18.252Z,100.00
2023-02-03T00:33:44.997Z,100.00
2023-02-03T00:36:12.317Z,100.00
2023-02-03T00:38:39.195Z,100.00
2023-02-03T00:41:06.739Z,100.00
2023-02-03T00:43:33.511Z,100.00
2023-02-03T00:46:00.221Z,100.00
2023-02-03T00:48:26.865Z,100.00
2023-02-03T00:50:53.400Z,100.00
2023-02-03T00:53:19.896Z,100.00
2023-02-03T00:55:46.407Z,100.00
2023-02-03T00:58:12.982Z,100.00
2023-02-03T01:00:39.818Z,100.00
2023-02-03T01:03:06.551Z,100.00
2023-02-03T01:05:33.069Z,100.00
2023-02-03T01:08:01.370Z,100.00
2023-02-03T01:10:28.897Z,100.00
2023-02-03T01:12:55.748Z,100.00
2023-02-03T01:15:22.404Z,100.00
2023-02-03T01:17:48.951Z,100.00
2023-02-03T01:20:17.124Z,100.00
2023-02-03T01:22:43.589Z,100.00
2023-02-03T01:25:10.160Z,100.00
2023-02-03T01:27:36.729Z,100.00
2023-02-03T01:30:03.659Z,100.00
2023-02-03T01:32:30.176Z,100.00
2023-02-03T01:34:56.682Z,100.00
2023-02-03T01:37:23.202Z,100.00
2023-02-03T01:39:49.727Z,100.00
2023-02-03T01:42:19.393Z,100.00
2023-02-03T01:44:48.362Z,100.00
2023-02-03T01:47:19.911Z,100.00
2023-02-03T01:50:12.600Z,100.00
2023-02-03T01:52:41.912Z,100.00
2023-02-03T01:55:12.317Z,100.00
2023-02-03T01:57:47.585Z,100.00
2023-02-03T02:00:14.732Z,100.00
2023-02-03T02:02:44.327Z,100.00
2023-02-03T02:05:20.357Z,100.00
2023-02-03T02:07:48.303Z,100.00
2023-02-03T02:10:15.044Z,100.00
2023-02-03T02:12:41.624Z,100.00
2023-02-03T02:15:08.986Z,100.00
2023-02-03T02:18:06.261Z,100.00
2023-02-03T02:20:45.065Z,100.00
2023-02-03T02:23:59.860Z,100.00
2023-02-03T02:26:57.077Z,100.00
2023-02-03T02:29:51.417Z,100.00
2023-02-03T02:32:41.345Z,100.00
2023-02-03T02:35:20.016Z,100.00
2023-02-03T02:38:10.811Z,100.00
2023-02-03T02:41:17.416Z,100.00
2023-02-03T02:44:01.726Z,100.00
2023-02-03T02:46:38.014Z,100.00
2023-02-03T02:49:16.516Z,100.00
2023-02-03T02:51:45.321Z,100.00
2023-02-03T02:54:20.301Z,100.00
2023-02-03T02:56:51.557Z,100.00
2023-02-03T02:59:18.110Z,100.00
2023-02-03T03:01:44.831Z,100.00
2023-02-03T03:04:14.820Z,100.00
2023-02-03T03:06:51.863Z,100.00
2023-02-03T03:09:25.972Z,100.00
2023-02-03T03:12:03.216Z,100.00
2023-02-03T03:14:32.035Z,100.00
2023-02-03T03:17:04.960Z,100.00
2023-02-03T03:19:36.891Z,100.00
2023-02-03T03:22:07.607Z,100.00
2023-02-03T03:24:41.905Z,100.00
2023-02-03T03:27:15.279Z,100.00
2023-02-03T03:29:51.923Z,100.00
2023-02-03T03:32:18.615Z,100.00
2023-02-03T03:34:45.363Z,100.00
2023-02-03T03:37:36.197Z,100.00
2023-02-03T03:40:28.278Z,100.00
2023-02-03T03:43:03.557Z,100.00
2023-02-03T03:45:41.108Z,100.00
2023-02-03T03:48:15.117Z,100.00
2023-02-03T03:50:48.538Z,100.00
2023-02-03T03:53:18.377Z,100.00
2023-02-03T03:55:49.700Z,100.00
2023-02-03T03:58:23.018Z,100.00
2023-02-03T04:00:50.771Z,100.00
2023-02-03T04:03:22.106Z,100.00
2023-02-03T04:05:49.086Z,100.00
2023-02-03T04:08:15.609Z,100.00
2023-02-03T04:10:44.205Z,100.00
2023-02-03T04:13:12.461Z,100.00
2023-02-03T04:15:38.961Z,100.00
2023-02-03T04:18:06.108Z,100.00
2023-02-03T04:20:33.099Z,100.00
2023-02-03T04:23:00.025Z,100.00
2023-02-03T04:25:27.027Z,100.00
2023-02-03T04:27:54.534Z,100.00
2023-02-03T04:30:21.440Z,100.00
2023-02-03T04:32:48.448Z,100.00
2023-02-03T04:35:15.352Z,100.00
2023-02-03T04:37:42.392Z,100.00
2023-02-03T04:40:09.939Z,100.00
2023-02-03T04:42:38.782Z,100.00
2023-02-03T04:45:06.433Z,100.00
2023-02-03T04:47:32.979Z,100.00
2023-02-03T04:50:00.218Z,100.00
2023-02-03T04:52:26.844Z,100.00
2023-02-03T04:54:53.305Z,100.00
2023-02-03T04:57:19.858Z,100.00
2023-02-03T04:59:46.344Z,100.00
2023-02-03T05:02:12.849Z,100.00
2023-02-03T05:04:39.359Z,100.00
2023-02-03T05:07:05.911Z,100.00
2023-02-03T05:09:32.409Z,100.00
2023-02-03T05:11:58.923Z,100.00
2023-02-03T05:14:25.412Z,100.00
2023-02-03T05:16:52.075Z,100.00
2023-02-03T05:19:18.842Z,100.00
2023-02-03T05:21:45.360Z,100.00
2023-02-03T05:24:12.018Z,100.00
2023-02-03T05:26:38.595Z,100.00
2023-02-03T05:29:05.267Z,100.00
2023-02-03T05:31:33.645Z,100.00
2023-02-03T05:34:00.278Z,100.00
2023-02-03T05:36:26.785Z,100.00
2023-02-03T05:38:53.252Z,100.00
2023-02-03T05:41:38.172Z,100.00
2023-02-03T05:44:04.786Z,100.00
2023-02-03T05:46:31.284Z,100.00
2023-02-03T05:48:57.836Z,100.00
2023-02-03T05:51:25.066Z,100.00
2023-02-03T05:53:51.664Z,100.00
2023-02-03T05:56:18.177Z,100.00
2023-02-03T05:58:44.660Z,100.00
2023-02-03T06:01:11.911Z,100.00
2023-02-03T06:03:38.659Z,100.00
2023-02-03T06:06:05.244Z,100.00
2023-02-03T06:08:31.786Z,100.00
2023-02-03T06:11:01.125Z,100.00
2023-02-03T06:13:28.383Z,100.00
2023-02-03T06:15:54.927Z,100.00
2023-02-03T06:18:21.486Z,100.00
2023-02-03T06:20:48.060Z,100.00
2023-02-03T06:23:17.111Z,100.00
2023-02-03T06:25:43.736Z,100.00
2023-02-03T06:28:10.453Z,100.00
2023-02-03T06:30:37.136Z,100.00
2023-02-03T06:33:03.735Z,100.00
2023-02-03T06:35:30.427Z,100.00
2023-02-03T06:37:56.937Z,100.00
2023-02-03T06:40:23.425Z,100.00
2023-02-03T06:42:51.166Z,100.00
2023-02-03T06:45:18.256Z,100.00
2023-02-03T06:47:45.925Z,100.00
2023-02-03T06:50:13.680Z,100.00
2023-02-03T06:52:40.403Z,100.00
2023-02-03T06:55:07.272Z,100.00
2023-02-03T06:57:33.733Z,100.00
2023-02-03T07:00:00.172Z,100.00
2023-02-03T07:02:26.661Z,100.00
2023-02-03T07:04:53.123Z,100.00
2023-02-03T07:07:19.456Z,100.00
2023-02-03T07:09:46.019Z,100.00
2023-02-03T07:12:12.403Z,100.00
2023-02-03T07:14:39.471Z,100.00
2023-02-03T07:17:06.996Z,100.00
2023-02-03T07:19:33.577Z,100.00
2023-02-03T07:22:00.336Z,100.00
2023-02-03T07:24:26.979Z,100.00
2023-02-03T07:26:53.671Z,100.00
2023-02-03T07:29:20.191Z,100.00
2023-02-03T07:31:46.797Z,100.00
2023-02-03T07:34:13.533Z,100.00
2023-02-03T07:36:41.390Z,100.00
2023-02-03T07:39:07.888Z,100.00
2023-02-03T07:41:34.404Z,100.00
2023-02-03T07:44:00.857Z,100.00
2023-02-03T07:46:27.405Z,100.00
2023-02-03T07:48:54.077Z,100.00
2023-02-03T07:51:20.650Z,100.00
2023-02-03T07:53:47.185Z,100.00
2023-02-03T07:56:13.907Z,100.00
2023-02-03T07:58:40.469Z,100.00
2023-02-03T08:01:13.489Z,100.00
2023-02-03T08:03:40.817Z,100.00
2023-02-03T08:06:08.223Z,100.00
2023-02-03T08:08:35.241Z,100.00
2023-02-03T08:11:02.079Z,100.00
2023-02-03T08:13:28.590Z,100.00
2023-02-03T08:15:55.142Z,100.00
2023-02-03T08:18:22.450Z,100.00
2023-02-03T08:20:49.055Z,100.00
2023-02-03T08:23:15.455Z,100.00
2023-02-03T08:25:41.904Z,100.00
2023-02-03T08:28:08.507Z,100.00
2023-02-03T08:30:35.265Z,100.00
2023-02-03T08:33:01.836Z,100.00
2023-02-03T08:35:28.304Z,100.00
2023-02-03T08:37:54.765Z,100.00
2023-02-03T08:40:21.281Z,100.00
2023-02-03T08:42:47.836Z,100.00
2023-02-03T08:45:14.336Z,100.00
2023-02-03T08:47:40.907Z,100.00
2023-02-03T08:50:08.812Z,100.00
2023-02-03T08:52:35.448Z,100.00
2023-02-03T08:55:01.967Z,100.00
2023-02-03T08:57:32.473Z,100.00
2023-02-03T08:59:58.964Z,100.00
2023-02-03T09:02:25.508Z,100.00
2023-02-03T09:04:52.123Z,100.00
2023-02-03T09:07:18.892Z,100.00
2023-02-03T09:09:45.592Z,100.00
2023-02-03T09:12:13.111Z,100.00
2023-02-03T09:14:39.916Z,100.00
2023-02-03T09:17:08.347Z,100.00
2023-02-03T09:19:36.528Z,100.00
2023-02-03T09:22:03.764Z,100.00
2023-02-03T09:24:30.746Z,100.00
2023-02-03T09:26:57.540Z,100.00
2023-02-03T09:29:24.263Z,100.00
2023-02-03T09:31:54.205Z,100.00
2023-02-03T09:34:21.666Z,100.00
2023-02-03T09:36:48.365Z,100.00
2023-02-03T09:39:15.364Z,100.00
2023-02-03T09:42:03.182Z,100.00
2023-02-03T09:45:11.044Z,100.00
2023-02-03T09:47:40.870Z,100.00
2023-02-03T09:50:14.120Z,100.00
2023-02-03T09:52:42.026Z,100.00
2023-02-03T09:55:26.696Z,100.00
2023-02-03T09:58:01.810Z,100.00
2023-02-03T10:00:42.448Z,100.00
2023-02-03T10:03:24.473Z,100.00
2023-02-03T10:06:02.979Z,100.00
2023-02-03T10:08:51.204Z,100.00
2023-02-03T10:11:55.989Z,100.00
2023-02-03T10:14:41.040Z,100.00
2023-02-03T10:17:29.095Z,100.00
2023-02-03T10:20:04.018Z,100.00
2023-02-03T10:22:35.024Z,100.00
2023-02-03T10:25:05.688Z,100.00
2023-02-03T10:27:33.725Z,100.00
2023-02-03T10:30:15.103Z,100.00
2023-02-03T10:32:41.664Z,100.00
2023-02-03T10:35:13.116Z,100.00
2023-02-03T10:37:47.888Z,100.00
2023-02-03T10:40:16.937Z,100.00
2023-02-03T10:43:07.518Z,100.00
2023-02-03T10:45:38.145Z,100.00
2023-02-03T10:48:07.232Z,100.00
2023-02-03T10:50:35.076Z,100.00
2023-02-03T10:53:26.817Z,100.00
2023-02-03T10:56:11.945Z,100.00
2023-02-03T10:58:40.401Z,98.82
2023-02-03T11:01:11.504Z,100.00
2023-02-03T11:03:41.105Z,100.00
2023-02-03T11:06:12.318Z,99.74
2023-02-03T11:08:42.371Z,99.74
2023-02-03T11:11:13.144Z,100.00
2023-02-03T11:13:39.727Z,98.58
2023-02-03T11:16:16.385Z,100.00
2023-02-03T11:19:04.527Z,99.19
2023-02-03T11:21:32.947Z,100.00
2023-02-03T11:24:20.872Z,100.00
2023-02-03T11:26:59.437Z,100.00
2023-02-03T11:29:34.669Z,100.00
2023-02-03T11:32:29.625Z,98.84
2023-02-03T11:35:25.452Z,98.92
2023-02-03T11:38:00.815Z,97.04
2023-02-03T11:40:29.583Z,96.49
2023-02-03T11:42:56.208Z,98.28
2023-02-03T11:45:35.680Z,99.67
2023-02-03T11:48:02.112Z,98.14
2023-02-03T11:50:57.532Z,98.91
2023-02-03T11:53:27.061Z,96.63
2023-02-03T11:56:15.165Z,97.75
2023-02-03T11:59:11.973Z,97.28
2023-02-03T12:01:49.991Z,97.09
2023-02-03T12:04:19.588Z,94.97
2023-02-03T12:07:00.981Z,94.96
2023-02-03T12:09:36.992Z,93.63
2023-02-03T12:12:45.195Z,93.08
2023-02-03T12:15:33.616Z,94.43
2023-02-03T12:18:24.403Z,94.35
2023-02-03T12:21:07.858Z,92.30
2023-02-03T12:23:50.009Z,89.94
2023-02-03T12:26:29.059Z,91.37
2023-02-03T12:29:07.617Z,89.86
2023-02-03T12:31:44.379Z,91.95
2023-02-03T12:34:23.173Z,91.86
2023-02-03T12:36:58.579Z,89.80
2023-02-03T12:39:48.101Z,88.14
2023-02-03T12:42:23.990Z,89.37
2023-02-03T12:45:13.610Z,88.51
2023-02-03T12:47:46.067Z,88.70
2023-02-03T12:50:18.653Z,86.89
2023-02-03T12:52:52.985Z,87.57
2023-02-03T12:55:31.733Z,88.03
2023-02-03T12:58:23.298Z,88.04
2023-02-03T13:01:12.585Z,87.92
2023-02-03T13:03:45.771Z,87.71
2023-02-03T13:06:16.665Z,88.10
2023-02-03T13:09:01.542Z,87.11
2023-02-03T13:11:45.867Z,87.86
2023-02-03T13:14:34.744Z,86.54
2023-02-03T13:17:20.400Z,87.24
2023-02-03T13:19:51.443Z,87.45
2023-02-03T13:22:19.367Z,85.72
2023-02-03T13:25:01.517Z,85.02
2023-02-03T13:28:06.935Z,85.46
2023-02-03T13:30:51.972Z,84.59
2023-02-03T13:33:48.038Z,84.96
2023-02-03T13:36:36.402Z,87.28
2023-02-03T13:39:29.166Z,85.76
2023-02-03T13:42:11.070Z,86.51
2023-02-03T13:44:39.821Z,85.41
2023-02-03T13:47:14.223Z,85.81
2023-02-03T13:49:46.303Z,86.17
2023-02-03T13:52:37.387Z,85.79
2023-02-03T13:55:05.472Z,84.63
2023-02-03T13:57:35.559Z,85.74
2023-02-03T14:00:04.416Z,86.53
2023-02-03T14:02:42.980Z,83.40
2023-02-03T14:05:39.965Z,84.55
2023-02-03T14:08:32.507Z,83.72
2023-02-03T14:11:39.928Z,84.57
2023-02-03T14:14:09.598Z,84.19
2023-02-03T14:16:37.324Z,83.46
2023-02-03T14:19:05.379Z,84.04
2023-02-03T14:22:03.628Z,83.58
2023-02-03T14:24:33.401Z,84.38
2023-02-03T14:27:02.370Z,81.94
2023-02-03T14:29:32.484Z,83.33
2023-02-03T14:32:00.830Z,83.90
2023-02-03T14:34:45.779Z,82.81
2023-02-03T14:37:28.841Z,83.72
2023-02-03T14:40:26.262Z,83.54
2023-02-03T14:43:12.311Z,84.92
2023-02-03T14:46:10.127Z,84.86
2023-02-03T14:48:55.440Z,84.90
2023-02-03T14:51:55.786Z,85.20
2023-02-03T14:54:43.885Z,83.81
2023-02-03T14:57:38.868Z,84.95
2023-02-03T15:00:07.329Z,85.59
2023-02-03T15:02:34.711Z,85.45
2023-02-03T15:05:13.588Z,85.47
2023-02-03T15:07:48.729Z,85.98
2023-02-03T15:10:24.162Z,86.06
2023-02-03T15:12:53.143Z,86.14
2023-02-03T15:15:29.117Z,86.85
2023-02-03T15:17:58.243Z,86.40
2023-02-03T15:20:45.375Z,85.84
2023-02-03T15:23:26.338Z,86.40
2023-02-03T15:26:04.096Z,86.35
2023-02-03T15:28:30.851Z,87.57
2023-02-03T15:31:23.693Z,86.90
2023-02-03T15:33:53.020Z,86.84
2023-02-03T15:36:23.514Z,87.66
2023-02-03T15:38:55.831Z,87.32
2023-02-03T15:41:24.499Z,86.72
2023-02-03T15:43:56.817Z,86.95
2023-02-03T15:46:35.139Z,87.07
2023-02-03T15:49:27.957Z,87.97
2023-02-03T15:52:08.691Z,87.80
2023-02-03T15:54:41.424Z,87.21
2023-02-03T15:57:21.191Z,87.00
2023-02-03T16:00:20.212Z,88.18
2023-02-03T16:02:47.060Z,88.40
2023-02-03T16:05:22.239Z,88.31
2023-02-03T16:07:48.954Z,89.44
2023-02-03T16:10:34.418Z,89.60
2023-02-03T16:13:25.977Z,92.75
2023-02-03T16:16:13.300Z,97.00
2023-02-03T16:18:40.390Z,100.00
2023-02-03T16:21:25.121Z,100.00
2023-02-03T16:23:51.660Z,100.00
2023-02-03T16:26:19.470Z,100.00
2023-02-03T16:29:23.203Z,100.00
2023-02-03T16:32:08.621Z,100.00
2023-02-03T16:34:53.864Z,100.00
2023-02-03T16:37:44.892Z,100.00
2023-02-03T16:40:32.718Z,100.00
2023-02-03T16:43:18.045Z,100.00
2023-02-03T16:46:02.933Z,100.00
2023-02-03T16:48:47.744Z,100.00
2023-02-03T16:51:16.727Z,100.00
2023-02-03T16:53:45.343Z,100.00
2023-02-03T16:56:12.531Z,100.00
2023-02-03T16:58:39.461Z,100.00
2023-02-03T17:01:07.663Z,100.00
2023-02-03T17:03:36.058Z,100.00
2023-02-03T17:06:08.784Z,100.00
2023-02-03T17:08:36.198Z,100.00
2023-02-03T17:11:08.700Z,100.00
2023-02-03T17:13:36.880Z,100.00
2023-02-03T17:16:12.119Z,100.00
2023-02-03T17:18:39.287Z,100.00
2023-02-03T17:21:07.958Z,100.00
2023-02-03T17:23:34.500Z,100.00
2023-02-03T17:26:01.144Z,100.00
2023-02-03T17:28:27.700Z,100.00
2023-02-03T17:31:05.123Z,100.00
2023-02-03T17:33:33.415Z,100.00
2023-02-03T17:36:05.598Z,100.00
2023-02-03T17:38:36.759Z,100.00
2023-02-03T17:54:51.040Z,100.00
2023-02-03T17:57:17.556Z,100.00
2023-02-03T17:59:44.044Z,100.00
2023-02-03T18:02:10.672Z,100.00
2023-02-03T18:04:37.209Z,100.00
2023-02-03T18:07:03.828Z,100.00
2023-02-03T18:09:30.560Z,100.00
2023-02-03T18:11:57.132Z,100.00
2023-02-03T18:14:23.631Z,100.00
2023-02-03T18:16:50.154Z,100.00
2023-02-03T18:19:16.715Z,100.00
2023-02-03T18:21:43.946Z,100.00
2023-02-03T18:24:12.619Z,100.00
2023-02-03T18:26:47.695Z,100.00
2023-02-03T18:29:14.317Z,100.00
2023-02-03T18:31:41.028Z,100.00
2023-02-03T18:34:07.635Z,100.00
2023-02-03T18:36:34.361Z,100.00
2023-02-03T18:39:01.059Z,100.00
2023-02-03T18:41:27.801Z,100.00
2023-02-03T18:43:54.546Z,100.00
2023-02-03T18:46:24.117Z,100.00
2023-02-03T18:48:51.203Z,100.00
2023-02-03T18:51:19.463Z,100.00
2023-02-03T18:53:46.860Z,100.00
2023-02-03T18:56:25.091Z,100.00
2023-02-03T18:58:51.751Z,100.00
2023-02-03T19:01:38.711Z,100.00
2023-02-03T19:04:06.317Z,100.00
2023-02-03T19:06:34.664Z,100.00
2023-02-03T19:09:02.265Z,100.00
2023-02-03T19:11:28.860Z,100.00
2023-02-03T19:13:55.449Z,100.00
2023-02-03T19:16:21.949Z,100.00
2023-02-03T19:18:48.876Z,100.00
2023-02-03T19:21:15.676Z,100.00
2023-02-03T19:23:42.921Z,100.00
2023-02-03T19:26:10.146Z,100.00
2023-02-03T19:28:36.946Z,100.00
2023-02-03T19:31:16.456Z,100.00
2023-02-03T19:33:43.318Z,100.00
2023-02-03T19:36:11.273Z,100.00
2023-02-03T19:38:37.868Z,100.00
2023-02-03T19:41:04.940Z,100.00
2023-02-03T19:43:31.530Z,100.00
2023-02-03T19:45:58.795Z,100.00
2023-02-03T19:48:25.338Z,100.00
2023-02-03T19:50:51.875Z,100.00
2023-02-03T19:53:18.806Z,100.00
2023-02-03T19:55:46.443Z,100.00
2023-02-03T19:58:13.955Z,100.00
2023-02-03T20:00:41.549Z,100.00
2023-02-03T20:03:08.141Z,100.00
2023-02-03T20:05:36.095Z,100.00
2023-02-03T20:08:03.049Z,100.00
2023-02-03T20:10:30.026Z,100.00
2023-02-03T20:12:56.650Z,100.00
2023-02-03T20:15:23.213Z,100.00
2023-02-03T20:17:49.755Z,100.00
2023-02-03T20:20:19.138Z,100.00
2023-02-03T20:22:46.902Z,100.00
2023-02-03T20:25:13.468Z,100.00
2023-02-03T20:27:40.198Z,100.00
2023-02-03T20:30:07.452Z,100.00
2023-02-03T20:32:34.534Z,100.00
2023-02-03T20:35:01.345Z,100.00
2023-02-03T20:37:27.901Z,100.00
2023-02-03T20:39:54.459Z,100.00
2023-02-03T20:42:20.971Z,100.00
2023-02-03T20:44:47.525Z,100.00
2023-02-03T20:47:18.507Z,100.00
2023-02-03T20:49:46.113Z,100.00
2023-02-03T20:52:14.207Z,100.00
2023-02-03T20:54:41.162Z,100.00
2023-02-03T20:57:13.726Z,100.00
2023-02-03T20:59:40.303Z,100.00
2023-02-03T21:02:51.219Z,100.00
2023-02-03T21:05:27.410Z,100.00
2023-02-03T21:07:54.683Z,100.00
2023-02-03T21:10:23.605Z,100.00
2023-02-03T21:12:50.288Z,100.00
2023-02-03T21:15:23.744Z,100.00
2023-02-03T21:17:50.240Z,100.00
2023-02-03T21:20:33.032Z,100.00
2023-02-03T21:22:59.758Z,100.00
2023-02-03T21:25:32.986Z,100.00
2023-02-03T21:28:00.648Z,100.00
2023-02-03T21:30:32.427Z,100.00
2023-02-03T21:33:00.010Z,100.00
2023-02-03T21:35:34.644Z,100.00
2023-02-03T21:38:02.730Z,100.00
2023-02-03T21:40:32.851Z,100.00
2023-02-03T21:43:01.365Z,100.00
2023-02-03T21:45:42.296Z,100.00
2023-02-03T21:48:26.816Z,100.00
2023-02-03T21:50:55.218Z,100.00
2023-02-03T21:53:24.009Z,100.00
2023-02-03T21:55:50.559Z,100.00
2023-02-03T21:58:26.408Z,100.00
2023-02-03T22:00:55.711Z,100.00
2023-02-03T22:03:36.645Z,100.00
2023-02-03T22:06:05.870Z,100.00
2023-02-03T22:08:36.221Z,100.00
2023-02-03T22:11:02.680Z,100.00
2023-02-03T22:13:29.553Z,100.00
2023-02-03T22:15:56.598Z,100.00
2023-02-03T22:18:23.641Z,100.00
2023-02-03T22:20:50.722Z,100.00
2023-02-03T22:23:17.218Z,100.00
2023-02-03T22:25:43.778Z,100.00
2023-02-03T22:28:10.375Z,100.00
2023-02-03T22:30:37.106Z,100.00
2023-02-03T22:33:04.025Z,100.00
2023-02-03T22:35:30.560Z,100.00
2023-02-03T22:37:57.235Z,100.00
2023-02-03T22:40:24.064Z,100.00
2023-02-03T22:42:51.118Z,100.00
2023-02-03T22:45:18.751Z,100.00
2023-02-03T22:47:45.511Z,100.00
2023-02-03T22:50:13.721Z,100.00
2023-02-03T22:52:40.368Z,100.00
2023-02-03T22:55:08.789Z,100.00
2023-02-03T22:57:38.145Z,100.00
2023-02-03T23:00:10.980Z,100.00
2023-02-03T23:02:41.005Z,100.00
2023-02-03T23:05:08.779Z,100.00
2023-02-03T23:07:37.050Z,100.00
2023-02-03T23:10:05.233Z,100.00
2023-02-03T23:12:31.803Z,100.00
2023-02-03T23:14:58.432Z,100.00
2023-02-03T23:17:25.149Z,100.00
2023-02-03T23:19:51.668Z,100.00
2023-02-03T23:22:18.290Z,100.00
2023-02-03T23:24:44.848Z,100.00
2023-02-03T23:27:11.479Z,100.00
2023-02-03T23:29:38.324Z,100.00
2023-02-03T23:32:06.235Z,100.00
2023-02-03T23:34:51.497Z,100.00
2023-02-03T23:37:18.500Z,100.00
2023-02-03T23:39:45.168Z,100.00
2023-02-03T23:42:11.645Z,100.00
2023-02-03T23:44:38.144Z,100.00
2023-02-03T23:47:04.677Z,100.00
2023-02-03T23:49:31.474Z,100.00
2023-02-03T23:51:58.638Z,100.00
2023-02-03T23:54:25.556Z,100.00
2023-02-03T23:56:52.776Z,100.00
2023-02-03T23:59:19.874Z,100.00
